Aérodrome :
LOGIN :

S'inscrire | Disclaimer

   EN    FR    IT 

 










Légende :    VFR   VFR Marginal   IFR   IFR Intensif   IFR Très Intensif
Visi : 
Plafond : 
>= 8 km
>= 3000ft
5 à 8 km
1000 à 3000 ft
1500m à 5 km
500 à 1000 ft
800 à 1500m
200 à 500 ft
< 800m
< 200 ft
Symboles :   Orages  Brouillard  Fortes neiges  Fortes précipitations  Vent > 20 kt
SIGMETs :   Divers  Orages  Givrage  Turbulence  Onde Orograph.  Cendres Volcan.







- Altitude de l'aérodrome : 138 ft
- Code IATA : RLG


ETNL - Rostock Laage

DERNIER METAR :
  • 222120Z 17006KT 9999 -RA BKN150 19/17 Q1003 BLU

METARs EXPIRÉS :
  • 222020Z 23010KT 9999 -RA FEW080 BKN120 20/18 Q1005 RETSRA BLU
  • 221935Z 22006KT 9999 FEW050CB BKN080 20/19 Q1006 RETSRA BLU
  • 221920Z 23005KT 7000 TSRA FEW035 BKN050CB 20/19 Q1006 WHT

TAF TAF ETNL
Valide du 22 à 17h jusqu'au 23 à 05h UTC


221602Z 2217/2305 18010KT 9999 NSW SCT060 SCT130 BKN220
PROB30 2217/2219 VRB15G30KT 4000 TSRA SCT020 BKN050CB
TEMPO 2219/2301 26020G40KT 2500 TSRA BKN010 BKN040CB
PROB30 2219/2223 VRB20G50KT 0500 TSGR BKN006 BKN030CB
TEMPO 2301/2305 26015KT 4000 BR BKN006 BKN040 BY ETGL
Pas de NOTAMs connus pour ce terrain.
1 SIGMET publié pour la FIR Bremen (EDWW) :
 
Orages fréquents avec grêle
EDWW SIGMET 5 VALID 222015/222215 EDZH
EDWW BREMEN FIR FRQ TSGR FCST S OF N5300 AND E OF E01035 TOP FL420 MOV E WKN=



MET'MAP, la Météo Aéronautique d'un coup d'oeil ! - Copyright ORBIFLY Décembre 2007 - Disclaimer

ORBIFLY MET'MAP TEAM :

Programmation & Développement : Alexandra Zaïnal
Conception & Développement : Baudouin d'Aumeries
Co-Programmation & Développement : Marc-Olivier Méhu
Soutien technique & logistique : Manuel Goepfert

Contact : metmap@orbifly.com




SOURCES & CREDITS :

   NOAA